Hastings, Nebraska
Current Conditions -  °F | °C
As of 11:53 AM on Wednesday 28 Jan 2015 (Local Time) from KHSI Reporting Station
Clear Clear  
Wind Chill: 62°   Ceiling: Unl
Heat Index: 62°   Visibility: 10mi
Dew Point: 31°   Wind: 16mph
Humidity: 31%   Direction: 320°NW
Pressure: 29.76"   Gusts: NA
Location:  40.59°N, 98.39°W
Report Text: KHSI 281753Z AUTO 32014KT 10SM CLR 17/M01 A2976 RMK AO2 SLP079 T01671006 10172 21044 58009
Loading
Personal Weather Stations






























Interactive Weather Map New forecast layout! Learn more

10-Day Weather Forecast

Advertisements
Track Severe Weather on mobile